sensor_id;sensor_type;location;lat;lon;timestamp;temperature;humidity
5492;DHT22;2768;53.540;10.224;2023-01-15T00:04:52;7.40;1.00
5492;DHT22;2768;53.540;10.224;2023-01-15T00:10:46;7.40;1.00
5492;DHT22;2768;53.540;10.224;2023-01-15T00:16:39;7.30;1.00
5492;DHT22;2768;53.540;10.224;2023-01-15T00:22:34;7.20;1.00
5492;DHT22;2768;53.540;10.224;2023-01-15T00:28:27;7.20;1.00
5492;DHT22;2768;53.540;10.224;2023-01-15T00:34:21;7.10;1.00
5492;DHT22;2768;53.540;10.224;2023-01-15T00:40:17;7.10;1.00
5492;DHT22;2768;53.540;10.224;2023-01-15T00:46:11;7.10;1.00
5492;DHT22;2768;53.540;10.224;2023-01-15T00:52:04;7.10;1.00
5492;DHT22;2768;53.540;10.224;2023-01-15T00:57:59;7.10;1.00
5492;DHT22;2768;53.540;10.224;2023-01-15T01:03:52;7.10;1.00
5492;DHT22;2768;53.540;10.224;2023-01-15T01:09:47;7.10;1.00
5492;DHT22;2768;53.540;10.224;2023-01-15T01:15:42;7.00;1.00
5492;DHT22;2768;53.540;10.224;2023-01-15T01:21:37;7.00;1.00
5492;DHT22;2768;53.540;10.224;2023-01-15T01:27:31;7.00;1.00
5492;DHT22;2768;53.540;10.224;2023-01-15T01:33:25;7.00;1.00
5492;DHT22;2768;53.540;10.224;2023-01-15T01:39:20;7.00;1.00
5492;DHT22;2768;53.540;10.224;2023-01-15T01:45:19;7.00;1.00
5492;DHT22;2768;53.540;10.224;2023-01-15T01:51:19;6.90;1.00
5492;DHT22;2768;53.540;10.224;2023-01-15T01:57:15;6.90;1.00
5492;DHT22;2768;53.540;10.224;2023-01-15T02:03:10;6.80;1.00
5492;DHT22;2768;53.540;10.224;2023-01-15T02:09:05;6.90;1.00
5492;DHT22;2768;53.540;10.224;2023-01-15T02:15:05;6.90;1.00
5492;DHT22;2768;53.540;10.224;2023-01-15T02:21:03;7.00;1.00
5492;DHT22;2768;53.540;10.224;2023-01-15T02:27:08;7.00;1.00
5492;DHT22;2768;53.540;10.224;2023-01-15T02:33:07;7.00;1.00
5492;DHT22;2768;53.540;10.224;2023-01-15T02:39:06;7.00;1.00
5492;DHT22;2768;53.540;10.224;2023-01-15T02:45:05;7.00;1.00
5492;DHT22;2768;53.540;10.224;2023-01-15T02:51:04;7.10;1.00
5492;DHT22;2768;53.540;10.224;2023-01-15T02:57:00;7.10;1.00
5492;DHT22;2768;53.540;10.224;2023-01-15T03:02:59;7.10;1.00
5492;DHT22;2768;53.540;10.224;2023-01-15T03:08:54;7.10;1.00
5492;DHT22;2768;53.540;10.224;2023-01-15T03:14:55;7.10;1.00
5492;DHT22;2768;53.540;10.224;2023-01-15T03:20:59;7.00;1.00
5492;DHT22;2768;53.540;10.224;2023-01-15T03:26:55;7.10;1.00
5492;DHT22;2768;53.540;10.224;2023-01-15T03:32:49;7.00;1.00
5492;DHT22;2768;53.540;10.224;2023-01-15T03:38:45;7.00;1.00
5492;DHT22;2768;53.540;10.224;2023-01-15T03:45:10;7.00;1.00
5492;DHT22;2768;53.540;10.224;2023-01-15T03:51:08;7.00;1.00
5492;DHT22;2768;53.540;10.224;2023-01-15T03:57:12;7.00;1.00
5492;DHT22;2768;53.540;10.224;2023-01-15T04:03:08;7.00;1.00
5492;DHT22;2768;53.540;10.224;2023-01-15T04:09:04;6.90;1.00
5492;DHT22;2768;53.540;10.224;2023-01-15T04:15:00;7.00;1.00
5492;DHT22;2768;53.540;10.224;2023-01-15T04:20:53;6.90;1.00
5492;DHT22;2768;53.540;10.224;2023-01-15T04:26:46;6.90;1.00
5492;DHT22;2768;53.540;10.224;2023-01-15T04:32:41;6.80;1.00
5492;DHT22;2768;53.540;10.224;2023-01-15T04:38:35;6.80;1.00
5492;DHT22;2768;53.540;10.224;2023-01-15T04:44:29;6.80;1.00
5492;DHT22;2768;53.540;10.224;2023-01-15T04:50:23;6.90;1.00
5492;DHT22;2768;53.540;10.224;2023-01-15T04:56:17;6.80;1.00
5492;DHT22;2768;53.540;10.224;2023-01-15T05:02:10;6.80;1.00
5492;DHT22;2768;53.540;10.224;2023-01-15T05:08:07;6.80;1.00
5492;DHT22;2768;53.540;10.224;2023-01-15T05:14:01;6.70;1.00
5492;DHT22;2768;53.540;10.224;2023-01-15T05:19:54;6.70;1.00
5492;DHT22;2768;53.540;10.224;2023-01-15T05:25:49;6.70;1.00
5492;DHT22;2768;53.540;10.224;2023-01-15T05:31:43;6.60;1.00
5492;DHT22;2768;53.540;10.224;2023-01-15T05:37:36;6.60;1.00
5492;DHT22;2768;53.540;10.224;2023-01-15T05:43:31;6.60;1.00
5492;DHT22;2768;53.540;10.224;2023-01-15T05:49:26;6.60;1.00
5492;DHT22;2768;53.540;10.224;2023-01-15T05:55:20;6.60;1.00
5492;DHT22;2768;53.540;10.224;2023-01-15T06:01:14;6.60;1.00
5492;DHT22;2768;53.540;10.224;2023-01-15T06:07:08;6.60;1.00
5492;DHT22;2768;53.540;10.224;2023-01-15T06:13:02;6.50;1.00
5492;DHT22;2768;53.540;10.224;2023-01-15T06:18:59;6.50;1.00
5492;DHT22;2768;53.540;10.224;2023-01-15T06:24:53;6.60;1.00
5492;DHT22;2768;53.540;10.224;2023-01-15T06:30:46;6.60;1.00
5492;DHT22;2768;53.540;10.224;2023-01-15T06:36:41;6.50;1.00
5492;DHT22;2768;53.540;10.224;2023-01-15T06:42:34;6.50;1.00
5492;DHT22;2768;53.540;10.224;2023-01-15T06:48:50;6.50;1.00
5492;DHT22;2768;53.540;10.224;2023-01-15T06:54:46;6.50;1.00
5492;DHT22;2768;53.540;10.224;2023-01-15T07:00:40;6.40;1.00
5492;DHT22;2768;53.540;10.224;2023-01-15T07:06:34;6.40;1.00
5492;DHT22;2768;53.540;10.224;2023-01-15T07:12:29;6.40;1.00
5492;DHT22;2768;53.540;10.224;2023-01-15T07:18:22;6.40;1.00
5492;DHT22;2768;53.540;10.224;2023-01-15T07:24:16;6.40;1.00
5492;DHT22;2768;53.540;10.224;2023-01-15T07:30:12;6.30;1.00
5492;DHT22;2768;53.540;10.224;2023-01-15T07:36:05;6.30;1.00
5492;DHT22;2768;53.540;10.224;2023-01-15T07:41:58;6.30;1.00
5492;DHT22;2768;53.540;10.224;2023-01-15T07:48:10;6.30;1.00
5492;DHT22;2768;53.540;10.224;2023-01-15T07:54:27;6.30;1.00
5492;DHT22;2768;53.540;10.224;2023-01-15T08:00:22;6.30;1.00
5492;DHT22;2768;53.540;10.224;2023-01-15T08:06:17;6.40;1.00
5492;DHT22;2768;53.540;10.224;2023-01-15T08:12:11;6.30;1.00
5492;DHT22;2768;53.540;10.224;2023-01-15T08:18:21;6.40;1.00
5492;DHT22;2768;53.540;10.224;2023-01-15T08:24:17;6.30;1.00
5492;DHT22;2768;53.540;10.224;2023-01-15T08:30:12;6.40;1.00
5492;DHT22;2768;53.540;10.224;2023-01-15T08:36:06;6.40;1.00
5492;DHT22;2768;53.540;10.224;2023-01-15T08:42:01;6.40;1.00
5492;DHT22;2768;53.540;10.224;2023-01-15T08:47:54;6.50;1.00
5492;DHT22;2768;53.540;10.224;2023-01-15T08:53:48;6.40;1.00
5492;DHT22;2768;53.540;10.224;2023-01-15T08:59:43;6.50;1.00
5492;DHT22;2768;53.540;10.224;2023-01-15T09:05:36;6.40;1.00
5492;DHT22;2768;53.540;10.224;2023-01-15T09:11:30;6.40;1.00
5492;DHT22;2768;53.540;10.224;2023-01-15T09:17:24;6.40;1.00
5492;DHT22;2768;53.540;10.224;2023-01-15T09:23:17;6.40;1.00
5492;DHT22;2768;53.540;10.224;2023-01-15T09:29:11;6.40;1.00
5492;DHT22;2768;53.540;10.224;2023-01-15T09:35:06;6.40;1.00
5492;DHT22;2768;53.540;10.224;2023-01-15T09:41:07;6.40;1.00
5492;DHT22;2768;53.540;10.224;2023-01-15T09:47:26;6.40;1.00
5492;DHT22;2768;53.540;10.224;2023-01-15T09:53:35;6.60;99.90
5492;DHT22;2768;53.540;10.224;2023-01-15T09:59:33;6.80;99.90
5492;DHT22;2768;53.540;10.224;2023-01-15T10:05:29;7.10;99.90
5492;DHT22;2768;53.540;10.224;2023-01-15T10:11:33;7.40;99.90
5492;DHT22;2768;53.540;10.224;2023-01-15T10:17:46;7.30;99.90
5492;DHT22;2768;53.540;10.224;2023-01-15T10:23:47;7.50;99.90
5492;DHT22;2768;53.540;10.224;2023-01-15T10:29:48;7.60;99.90
5492;DHT22;2768;53.540;10.224;2023-01-15T10:35:47;8.10;99.90
5492;DHT22;2768;53.540;10.224;2023-01-15T10:41:51;7.90;99.90
5492;DHT22;2768;53.540;10.224;2023-01-15T10:47:56;7.80;99.90
5492;DHT22;2768;53.540;10.224;2023-01-15T10:53:55;7.60;99.90
5492;DHT22;2768;53.540;10.224;2023-01-15T10:59:56;7.40;99.90
5492;DHT22;2768;53.540;10.224;2023-01-15T11:05:51;7.60;99.90
5492;DHT22;2768;53.540;10.224;2023-01-15T11:11:47;7.80;99.90
5492;DHT22;2768;53.540;10.224;2023-01-15T11:18:11;7.70;99.90
5492;DHT22;2768;53.540;10.224;2023-01-15T11:24:25;7.40;99.90
5492;DHT22;2768;53.540;10.224;2023-01-15T11:30:26;7.50;99.90
5492;DHT22;2768;53.540;10.224;2023-01-15T11:36:22;7.40;99.90
5492;DHT22;2768;53.540;10.224;2023-01-15T11:42:17;7.10;99.90
5492;DHT22;2768;53.540;10.224;2023-01-15T11:48:28;7.10;99.90
5492;DHT22;2768;53.540;10.224;2023-01-15T11:54:41;7.00;99.90
5492;DHT22;2768;53.540;10.224;2023-01-15T12:00:41;6.90;99.90
5492;DHT22;2768;53.540;10.224;2023-01-15T12:06:39;6.00;99.90
5492;DHT22;2768;53.540;10.224;2023-01-15T12:12:42;4.80;1.00
5492;DHT22;2768;53.540;10.224;2023-01-15T12:18:51;4.00;1.00
5492;DHT22;2768;53.540;10.224;2023-01-15T12:25:12;4.30;1.00
5492;DHT22;2768;53.540;10.224;2023-01-15T12:31:13;4.70;1.00
5492;DHT22;2768;53.540;10.224;2023-01-15T12:37:15;4.90;1.00
5492;DHT22;2768;53.540;10.224;2023-01-15T12:43:15;5.60;1.00
5492;DHT22;2768;53.540;10.224;2023-01-15T12:49:31;6.50;1.00
5492;DHT22;2768;53.540;10.224;2023-01-15T12:55:30;6.40;1.00
5492;DHT22;2768;53.540;10.224;2023-01-15T13:01:30;5.90;1.00
5492;DHT22;2768;53.540;10.224;2023-01-15T13:07:30;5.70;1.00
5492;DHT22;2768;53.540;10.224;2023-01-15T13:13:31;6.60;1.00
5492;DHT22;2768;53.540;10.224;2023-01-15T13:19:34;7.30;1.00
5492;DHT22;2768;53.540;10.224;2023-01-15T13:25:43;6.80;1.00
5492;DHT22;2768;53.540;10.224;2023-01-15T13:31:56;6.50;1.00
5492;DHT22;2768;53.540;10.224;2023-01-15T13:37:52;6.50;1.00
5492;DHT22;2768;53.540;10.224;2023-01-15T13:43:47;6.40;99.90
5492;DHT22;2768;53.540;10.224;2023-01-15T13:49:47;6.40;99.90
5492;DHT22;2768;53.540;10.224;2023-01-15T13:55:49;6.40;99.90
5492;DHT22;2768;53.540;10.224;2023-01-15T14:01:43;6.50;99.90
5492;DHT22;2768;53.540;10.224;2023-01-15T14:07:38;6.50;99.90
5492;DHT22;2768;53.540;10.224;2023-01-15T14:13:58;6.60;99.90
5492;DHT22;2768;53.540;10.224;2023-01-15T14:20:09;6.70;99.90
5492;DHT22;2768;53.540;10.224;2023-01-15T14:26:16;6.70;99.90
5492;DHT22;2768;53.540;10.224;2023-01-15T14:32:19;6.60;99.90
5492;DHT22;2768;53.540;10.224;2023-01-15T14:38:17;6.70;99.90
5492;DHT22;2768;53.540;10.224;2023-01-15T14:44:12;6.70;99.90
5492;DHT22;2768;53.540;10.224;2023-01-15T14:50:33;6.70;99.90
5492;DHT22;2768;53.540;10.224;2023-01-15T14:56:34;6.70;99.90
5492;DHT22;2768;53.540;10.224;2023-01-15T15:02:35;6.80;99.90
5492;DHT22;2768;53.540;10.224;2023-01-15T15:08:31;6.90;99.90
5492;DHT22;2768;53.540;10.224;2023-01-15T15:14:26;6.90;99.90
5492;DHT22;2768;53.540;10.224;2023-01-15T15:20:28;7.00;99.90
5492;DHT22;2768;53.540;10.224;2023-01-15T15:26:24;6.90;99.90
5492;DHT22;2768;53.540;10.224;2023-01-15T15:32:20;6.80;99.90
5492;DHT22;2768;53.540;10.224;2023-01-15T15:38:19;6.60;99.90
5492;DHT22;2768;53.540;10.224;2023-01-15T15:44:15;6.30;99.90
5492;DHT22;2768;53.540;10.224;2023-01-15T15:50:30;6.30;99.90
5492;DHT22;2768;53.540;10.224;2023-01-15T15:56:25;6.00;1.00
5492;DHT22;2768;53.540;10.224;2023-01-15T16:02:23;5.70;1.00
5492;DHT22;2768;53.540;10.224;2023-01-15T16:08:19;5.60;1.00
5492;DHT22;2768;53.540;10.224;2023-01-15T16:14:15;5.60;1.00
5492;DHT22;2768;53.540;10.224;2023-01-15T16:20:12;5.50;1.00
5492;DHT22;2768;53.540;10.224;2023-01-15T16:26:11;5.40;1.00
5492;DHT22;2768;53.540;10.224;2023-01-15T16:32:12;5.50;1.00
5492;DHT22;2768;53.540;10.224;2023-01-15T16:38:17;5.40;1.00
5492;DHT22;2768;53.540;10.224;2023-01-15T16:44:34;5.20;1.00
5492;DHT22;2768;53.540;10.224;2023-01-15T16:50:31;5.00;1.00
5492;DHT22;2768;53.540;10.224;2023-01-15T16:56:47;4.90;1.00
5492;DHT22;2768;53.540;10.224;2023-01-15T17:02:44;5.00;1.00
5492;DHT22;2768;53.540;10.224;2023-01-15T17:08:44;4.90;1.00
5492;DHT22;2768;53.540;10.224;2023-01-15T17:14:39;4.90;1.00
5492;DHT22;2768;53.540;10.224;2023-01-15T17:20:33;5.00;1.00
5492;DHT22;2768;53.540;10.224;2023-01-15T17:26:29;5.00;1.00
5492;DHT22;2768;53.540;10.224;2023-01-15T17:32:26;5.10;1.00
5492;DHT22;2768;53.540;10.224;2023-01-15T17:38:22;5.10;1.00
5492;DHT22;2768;53.540;10.224;2023-01-15T17:44:17;5.30;1.00
5492;DHT22;2768;53.540;10.224;2023-01-15T17:50:11;5.30;1.00
5492;DHT22;2768;53.540;10.224;2023-01-15T17:56:06;5.30;1.00
5492;DHT22;2768;53.540;10.224;2023-01-15T18:02:20;5.30;1.00
5492;DHT22;2768;53.540;10.224;2023-01-15T18:08:32;5.40;1.00
5492;DHT22;2768;53.540;10.224;2023-01-15T18:14:26;5.40;1.00
5492;DHT22;2768;53.540;10.224;2023-01-15T18:20:21;5.50;1.00
5492;DHT22;2768;53.540;10.224;2023-01-15T18:26:15;5.40;1.00
5492;DHT22;2768;53.540;10.224;2023-01-15T18:32:08;5.50;1.00
5492;DHT22;2768;53.540;10.224;2023-01-15T18:38:03;5.50;1.00
5492;DHT22;2768;53.540;10.224;2023-01-15T18:43:58;5.50;1.00
5492;DHT22;2768;53.540;10.224;2023-01-15T18:50:09;5.60;1.00
5492;DHT22;2768;53.540;10.224;2023-01-15T18:56:05;5.60;1.00
5492;DHT22;2768;53.540;10.224;2023-01-15T19:02:00;5.60;1.00
5492;DHT22;2768;53.540;10.224;2023-01-15T19:07:54;5.60;1.00
5492;DHT22;2768;53.540;10.224;2023-01-15T19:13:48;5.70;1.00
5492;DHT22;2768;53.540;10.224;2023-01-15T19:20:04;5.70;1.00
5492;DHT22;2768;53.540;10.224;2023-01-15T19:25:58;5.60;1.00
5492;DHT22;2768;53.540;10.224;2023-01-15T19:31:53;5.60;1.00
5492;DHT22;2768;53.540;10.224;2023-01-15T19:37:47;5.50;1.00
5492;DHT22;2768;53.540;10.224;2023-01-15T19:43:40;5.50;1.00
5492;DHT22;2768;53.540;10.224;2023-01-15T19:49:52;5.50;1.00
5492;DHT22;2768;53.540;10.224;2023-01-15T19:56:03;5.50;1.00
5492;DHT22;2768;53.540;10.224;2023-01-15T20:01:57;5.50;1.00
5492;DHT22;2768;53.540;10.224;2023-01-15T20:07:55;5.50;1.00
5492;DHT22;2768;53.540;10.224;2023-01-15T20:13:48;5.50;1.00
5492;DHT22;2768;53.540;10.224;2023-01-15T20:19:44;5.30;1.00
5492;DHT22;2768;53.540;10.224;2023-01-15T20:25:39;5.30;1.00
5492;DHT22;2768;53.540;10.224;2023-01-15T20:31:37;5.30;1.00
5492;DHT22;2768;53.540;10.224;2023-01-15T20:37:31;5.30;1.00
5492;DHT22;2768;53.540;10.224;2023-01-15T20:43:25;5.30;1.00
5492;DHT22;2768;53.540;10.224;2023-01-15T20:49:36;5.40;1.00
5492;DHT22;2768;53.540;10.224;2023-01-15T20:55:30;5.50;1.00
5492;DHT22;2768;53.540;10.224;2023-01-15T21:01:47;5.40;1.00
5492;DHT22;2768;53.540;10.224;2023-01-15T21:07:40;5.40;1.00
5492;DHT22;2768;53.540;10.224;2023-01-15T21:13:34;5.50;1.00
5492;DHT22;2768;53.540;10.224;2023-01-15T21:19:30;5.40;1.00
5492;DHT22;2768;53.540;10.224;2023-01-15T21:25:24;5.40;1.00
5492;DHT22;2768;53.540;10.224;2023-01-15T21:31:17;5.40;1.00
5492;DHT22;2768;53.540;10.224;2023-01-15T21:37:13;5.40;1.00
5492;DHT22;2768;53.540;10.224;2023-01-15T21:43:08;5.50;1.00
5492;DHT22;2768;53.540;10.224;2023-01-15T21:49:20;5.40;1.00
5492;DHT22;2768;53.540;10.224;2023-01-15T21:55:15;5.40;1.00
5492;DHT22;2768;53.540;10.224;2023-01-15T22:01:10;5.40;1.00
5492;DHT22;2768;53.540;10.224;2023-01-15T22:07:04;5.30;1.00
5492;DHT22;2768;53.540;10.224;2023-01-15T22:12:59;5.30;1.00
5492;DHT22;2768;53.540;10.224;2023-01-15T22:18:53;5.30;1.00
5492;DHT22;2768;53.540;10.224;2023-01-15T22:24:47;5.30;1.00
5492;DHT22;2768;53.540;10.224;2023-01-15T22:30:42;5.30;1.00
5492;DHT22;2768;53.540;10.224;2023-01-15T22:36:36;5.40;1.00
5492;DHT22;2768;53.540;10.224;2023-01-15T22:42:31;5.30;1.00
5492;DHT22;2768;53.540;10.224;2023-01-15T22:48:26;5.30;1.00
5492;DHT22;2768;53.540;10.224;2023-01-15T22:54:19;5.30;1.00
5492;DHT22;2768;53.540;10.224;2023-01-15T23:00:14;5.30;1.00
5492;DHT22;2768;53.540;10.224;2023-01-15T23:06:09;5.30;1.00
5492;DHT22;2768;53.540;10.224;2023-01-15T23:12:03;5.40;1.00
5492;DHT22;2768;53.540;10.224;2023-01-15T23:17:57;5.40;1.00
5492;DHT22;2768;53.540;10.224;2023-01-15T23:23:54;5.40;1.00
5492;DHT22;2768;53.540;10.224;2023-01-15T23:29:48;5.40;1.00
5492;DHT22;2768;53.540;10.224;2023-01-15T23:35:43;5.40;1.00
5492;DHT22;2768;53.540;10.224;2023-01-15T23:41:38;5.40;1.00
5492;DHT22;2768;53.540;10.224;2023-01-15T23:47:49;5.40;1.00
5492;DHT22;2768;53.540;10.224;2023-01-15T23:53:43;5.40;1.00
5492;DHT22;2768;53.540;10.224;2023-01-15T23:59:38;5.40;1.00
